sensor_id;sensor_type;location;lat;lon;timestamp;pressure;altitude;pressure_sealevel;temperature;humidity
70781;BME280;59514;48.810;2.134;2022-07-25T00:01:33;99803.28;;;26.38;46.67
70781;BME280;59514;48.810;2.134;2022-07-25T00:03:59;99805.34;;;26.41;47.51
70781;BME280;59514;48.810;2.134;2022-07-25T00:06:24;99794.69;;;26.40;46.95
70781;BME280;59514;48.810;2.134;2022-07-25T00:08:50;99802.94;;;26.40;46.76
70781;BME280;59514;48.810;2.134;2022-07-25T00:11:15;99798.00;;;26.33;47.38
70781;BME280;59514;48.810;2.134;2022-07-25T00:13:41;99792.94;;;26.35;47.47
70781;BME280;59514;48.810;2.134;2022-07-25T00:16:06;99788.47;;;26.31;47.58
70781;BME280;59514;48.810;2.134;2022-07-25T00:18:31;99777.81;;;26.29;47.55
70781;BME280;59514;48.810;2.134;2022-07-25T00:20:57;99787.22;;;26.28;47.92
70781;BME280;59514;48.810;2.134;2022-07-25T00:23:23;99789.97;;;26.28;47.64
70781;BME280;59514;48.810;2.134;2022-07-25T00:25:48;99792.47;;;26.21;47.59
70781;BME280;59514;48.810;2.134;2022-07-25T00:28:13;99793.97;;;26.19;47.94
70781;BME280;59514;48.810;2.134;2022-07-25T00:30:39;99785.59;;;26.15;47.60
70781;BME280;59514;48.810;2.134;2022-07-25T00:33:04;99784.00;;;26.14;48.76
70781;BME280;59514;48.810;2.134;2022-07-25T00:35:30;99770.25;;;26.14;48.79
70781;BME280;59514;48.810;2.134;2022-07-25T00:37:55;99770.59;;;26.13;48.34
70781;BME280;59514;48.810;2.134;2022-07-25T00:40:21;99770.78;;;26.08;48.45
70781;BME280;59514;48.810;2.134;2022-07-25T00:42:46;99771.56;;;25.96;48.55
70781;BME280;59514;48.810;2.134;2022-07-25T00:45:12;99776.69;;;25.86;49.42
70781;BME280;59514;48.810;2.134;2022-07-25T00:47:37;99801.75;;;25.72;49.63
70781;BME280;59514;48.810;2.134;2022-07-25T00:50:03;99808.00;;;24.99;51.90
70781;BME280;59514;48.810;2.134;2022-07-25T00:52:29;99801.69;;;24.77;53.05
70781;BME280;59514;48.810;2.134;2022-07-25T00:54:54;99805.16;;;24.87;53.00
70781;BME280;59514;48.810;2.134;2022-07-25T00:57:21;99798.59;;;24.79;52.85
70781;BME280;59514;48.810;2.134;2022-07-25T00:59:46;99803.75;;;24.72;53.52
70781;BME280;59514;48.810;2.134;2022-07-25T01:02:12;99808.63;;;24.75;53.48
70781;BME280;59514;48.810;2.134;2022-07-25T01:04:37;99813.16;;;24.80;53.58
70781;BME280;59514;48.810;2.134;2022-07-25T01:07:02;99802.50;;;24.69;54.36
70781;BME280;59514;48.810;2.134;2022-07-25T01:09:28;99800.41;;;24.66;54.04
70781;BME280;59514;48.810;2.134;2022-07-25T01:11:53;99808.19;;;24.64;54.97
70781;BME280;59514;48.810;2.134;2022-07-25T01:14:20;99807.91;;;24.57;54.49
70781;BME280;59514;48.810;2.134;2022-07-25T01:16:46;99805.91;;;24.66;54.01
70781;BME280;59514;48.810;2.134;2022-07-25T01:19:11;99803.63;;;24.68;54.28
70781;BME280;59514;48.810;2.134;2022-07-25T01:21:38;99803.91;;;24.46;54.95
70781;BME280;59514;48.810;2.134;2022-07-25T01:24:04;99797.09;;;24.52;55.39
70781;BME280;59514;48.810;2.134;2022-07-25T01:26:30;99791.97;;;24.42;55.13
70781;BME280;59514;48.810;2.134;2022-07-25T01:28:56;99793.50;;;24.31;55.18
70781;BME280;59514;48.810;2.134;2022-07-25T01:31:22;99804.81;;;24.30;55.38
70781;BME280;59514;48.810;2.134;2022-07-25T01:33:47;99788.09;;;23.97;55.90
70781;BME280;59514;48.810;2.134;2022-07-25T01:36:13;99799.47;;;23.70;56.73
70781;BME280;59514;48.810;2.134;2022-07-25T01:38:38;99785.91;;;23.82;57.07
70781;BME280;59514;48.810;2.134;2022-07-25T01:41:03;99787.50;;;23.83;57.40
70781;BME280;59514;48.810;2.134;2022-07-25T01:43:29;99786.16;;;23.98;55.66
70781;BME280;59514;48.810;2.134;2022-07-25T01:45:54;99780.34;;;23.99;55.60
70781;BME280;59514;48.810;2.134;2022-07-25T01:48:20;99779.09;;;23.88;55.62
70781;BME280;59514;48.810;2.134;2022-07-25T01:50:45;99794.63;;;23.67;56.31
70781;BME280;59514;48.810;2.134;2022-07-25T01:53:10;99790.13;;;23.54;56.26
70781;BME280;59514;48.810;2.134;2022-07-25T01:55:36;99801.38;;;23.27;57.48
70781;BME280;59514;48.810;2.134;2022-07-25T01:58:01;99789.78;;;23.30;57.71
70781;BME280;59514;48.810;2.134;2022-07-25T02:00:26;99788.34;;;23.41;57.27
70781;BME280;59514;48.810;2.134;2022-07-25T02:02:52;99790.78;;;23.34;57.15
70781;BME280;59514;48.810;2.134;2022-07-25T02:05:37;99793.50;;;23.08;58.08
70781;BME280;59514;48.810;2.134;2022-07-25T02:08:02;99793.84;;;22.50;59.32
70781;BME280;59514;48.810;2.134;2022-07-25T02:10:28;99788.28;;;22.33;60.28
70781;BME280;59514;48.810;2.134;2022-07-25T02:12:53;99793.84;;;22.50;61.25
70781;BME280;59514;48.810;2.134;2022-07-25T02:15:18;99789.91;;;22.65;59.92
70781;BME280;59514;48.810;2.134;2022-07-25T02:17:44;99798.56;;;22.27;60.05
70781;BME280;59514;48.810;2.134;2022-07-25T02:20:10;99797.38;;;21.81;61.24
70781;BME280;59514;48.810;2.134;2022-07-25T02:22:35;99790.75;;;22.04;60.57
70781;BME280;59514;48.810;2.134;2022-07-25T02:25:00;99794.97;;;22.10;59.63
70781;BME280;59514;48.810;2.134;2022-07-25T02:27:26;99791.16;;;21.67;60.99
70781;BME280;59514;48.810;2.134;2022-07-25T02:29:51;99779.31;;;21.80;60.68
70781;BME280;59514;48.810;2.134;2022-07-25T02:32:16;99779.84;;;21.60;61.72
70781;BME280;59514;48.810;2.134;2022-07-25T02:34:42;99779.31;;;22.02;60.32
70781;BME280;59514;48.810;2.134;2022-07-25T02:37:07;99778.28;;;21.89;60.42
70781;BME280;59514;48.810;2.134;2022-07-25T02:39:32;99785.94;;;22.01;59.69
70781;BME280;59514;48.810;2.134;2022-07-25T02:41:57;99784.63;;;21.98;60.71
70781;BME280;59514;48.810;2.134;2022-07-25T02:44:23;99785.69;;;21.89;60.30
70781;BME280;59514;48.810;2.134;2022-07-25T02:46:48;99784.94;;;21.97;60.73
70781;BME280;59514;48.810;2.134;2022-07-25T02:49:14;99790.59;;;22.00;60.19
70781;BME280;59514;48.810;2.134;2022-07-25T02:51:39;99785.81;;;21.84;60.91
70781;BME280;59514;48.810;2.134;2022-07-25T02:54:04;99781.34;;;21.66;63.01
70781;BME280;59514;48.810;2.134;2022-07-25T02:56:29;99782.31;;;21.83;60.76
70781;BME280;59514;48.810;2.134;2022-07-25T02:58:57;99781.47;;;21.83;60.67
70781;BME280;59514;48.810;2.134;2022-07-25T03:01:23;99782.31;;;21.70;61.32
70781;BME280;59514;48.810;2.134;2022-07-25T03:03:48;99781.03;;;21.67;61.17
70781;BME280;59514;48.810;2.134;2022-07-25T03:06:14;99794.63;;;21.59;61.43
70781;BME280;59514;48.810;2.134;2022-07-25T03:08:39;99799.78;;;21.60;61.07
70781;BME280;59514;48.810;2.134;2022-07-25T03:11:05;99802.72;;;21.41;61.42
70781;BME280;59514;48.810;2.134;2022-07-25T03:13:31;99795.03;;;21.43;61.33
70781;BME280;59514;48.810;2.134;2022-07-25T03:15:57;99798.59;;;21.30;61.40
70781;BME280;59514;48.810;2.134;2022-07-25T03:18:22;99789.78;;;21.56;61.63
70781;BME280;59514;48.810;2.134;2022-07-25T03:20:48;99791.28;;;21.62;60.47
70781;BME280;59514;48.810;2.134;2022-07-25T03:23:13;99805.75;;;21.62;59.68
70781;BME280;59514;48.810;2.134;2022-07-25T03:25:38;99804.47;;;21.37;60.64
70781;BME280;59514;48.810;2.134;2022-07-25T03:28:04;99812.09;;;21.49;60.48
70781;BME280;59514;48.810;2.134;2022-07-25T03:30:29;99813.38;;;21.29;60.06
70781;BME280;59514;48.810;2.134;2022-07-25T03:32:55;99807.94;;;21.29;60.30
70781;BME280;59514;48.810;2.134;2022-07-25T03:35:20;99803.19;;;21.21;59.90
70781;BME280;59514;48.810;2.134;2022-07-25T03:37:46;99815.44;;;21.10;59.62
70781;BME280;59514;48.810;2.134;2022-07-25T03:40:12;99822.50;;;21.25;59.79
70781;BME280;59514;48.810;2.134;2022-07-25T03:42:38;99824.25;;;21.43;59.46
70781;BME280;59514;48.810;2.134;2022-07-25T03:45:04;99824.56;;;20.92;59.80
70781;BME280;59514;48.810;2.134;2022-07-25T03:47:29;99832.56;;;20.89;59.55
70781;BME280;59514;48.810;2.134;2022-07-25T03:49:55;99834.47;;;20.88;59.69
70781;BME280;59514;48.810;2.134;2022-07-25T03:52:20;99842.16;;;20.86;59.48
70781;BME280;59514;48.810;2.134;2022-07-25T03:54:45;99836.34;;;20.66;59.78
70781;BME280;59514;48.810;2.134;2022-07-25T03:57:11;99831.47;;;20.49;59.85
70781;BME280;59514;48.810;2.134;2022-07-25T03:59:36;99837.25;;;20.47;60.22
70781;BME280;59514;48.810;2.134;2022-07-25T04:02:02;99838.94;;;20.71;59.76
70781;BME280;59514;48.810;2.134;2022-07-25T04:04:27;99834.09;;;20.68;59.88
70781;BME280;59514;48.810;2.134;2022-07-25T04:06:52;99840.34;;;20.68;58.99
70781;BME280;59514;48.810;2.134;2022-07-25T04:09:18;99858.25;;;20.60;59.09
70781;BME280;59514;48.810;2.134;2022-07-25T04:11:43;99853.09;;;20.59;59.46
70781;BME280;59514;48.810;2.134;2022-07-25T04:14:09;99854.09;;;20.63;59.29
70781;BME280;59514;48.810;2.134;2022-07-25T04:16:34;99852.91;;;20.42;59.93
70781;BME280;59514;48.810;2.134;2022-07-25T04:19:00;99855.00;;;20.58;59.55
70781;BME280;59514;48.810;2.134;2022-07-25T04:21:26;99855.72;;;20.50;60.18
70781;BME280;59514;48.810;2.134;2022-07-25T04:23:52;99847.72;;;20.40;61.26
70781;BME280;59514;48.810;2.134;2022-07-25T04:26:18;99853.72;;;20.56;60.22
70781;BME280;59514;48.810;2.134;2022-07-25T04:28:43;99849.28;;;20.60;60.11
70781;BME280;59514;48.810;2.134;2022-07-25T04:31:09;99852.28;;;20.58;60.00
70781;BME280;59514;48.810;2.134;2022-07-25T04:33:38;99843.78;;;20.46;60.28
70781;BME280;59514;48.810;2.134;2022-07-25T04:36:04;99857.72;;;20.58;60.07
70781;BME280;59514;48.810;2.134;2022-07-25T04:38:30;99863.19;;;20.72;60.08
70781;BME280;59514;48.810;2.134;2022-07-25T04:40:56;99864.00;;;20.86;59.50
70781;BME280;59514;48.810;2.134;2022-07-25T04:43:21;99865.31;;;21.02;59.93
70781;BME280;59514;48.810;2.134;2022-07-25T04:45:47;99865.59;;;21.14;59.43
70781;BME280;59514;48.810;2.134;2022-07-25T04:48:12;99867.50;;;21.00;61.35
70781;BME280;59514;48.810;2.134;2022-07-25T04:50:38;99861.91;;;20.56;60.86
70781;BME280;59514;48.810;2.134;2022-07-25T04:53:04;99867.03;;;20.71;60.42
70781;BME280;59514;48.810;2.134;2022-07-25T04:55:29;99858.16;;;20.52;61.33
70781;BME280;59514;48.810;2.134;2022-07-25T04:57:57;99870.88;;;20.56;60.93
70781;BME280;59514;48.810;2.134;2022-07-25T05:00:22;99868.13;;;20.70;60.46
70781;BME280;59514;48.810;2.134;2022-07-25T05:02:48;99873.38;;;20.80;60.33
70781;BME280;59514;48.810;2.134;2022-07-25T05:05:13;99877.25;;;20.79;61.03
70781;BME280;59514;48.810;2.134;2022-07-25T05:07:39;99862.56;;;20.89;61.00
70781;BME280;59514;48.810;2.134;2022-07-25T05:10:04;99864.41;;;20.80;61.00
70781;BME280;59514;48.810;2.134;2022-07-25T05:12:30;99869.44;;;20.86;61.00
70781;BME280;59514;48.810;2.134;2022-07-25T05:14:55;99872.09;;;20.91;60.99
70781;BME280;59514;48.810;2.134;2022-07-25T05:17:21;99880.38;;;20.86;61.22
70781;BME280;59514;48.810;2.134;2022-07-25T05:19:46;99879.56;;;20.99;61.16
70781;BME280;59514;48.810;2.134;2022-07-25T05:22:12;99879.78;;;21.03;60.92
70781;BME280;59514;48.810;2.134;2022-07-25T05:24:38;99883.88;;;21.00;61.44
70781;BME280;59514;48.810;2.134;2022-07-25T05:27:04;99887.25;;;20.70;62.25
70781;BME280;59514;48.810;2.134;2022-07-25T05:29:30;99884.81;;;20.69;63.11
70781;BME280;59514;48.810;2.134;2022-07-25T05:31:56;99894.63;;;20.70;62.87
70781;BME280;59514;48.810;2.134;2022-07-25T05:34:21;99895.22;;;20.80;62.70
70781;BME280;59514;48.810;2.134;2022-07-25T05:36:47;99900.78;;;20.75;63.58
70781;BME280;59514;48.810;2.134;2022-07-25T05:39:12;99904.41;;;20.84;63.38
70781;BME280;59514;48.810;2.134;2022-07-25T05:41:38;99897.16;;;20.80;63.35
70781;BME280;59514;48.810;2.134;2022-07-25T05:44:03;99907.06;;;20.89;63.95
70781;BME280;59514;48.810;2.134;2022-07-25T05:46:31;99907.06;;;20.89;64.13
70781;BME280;59514;48.810;2.134;2022-07-25T05:48:56;99904.44;;;20.98;63.61
70781;BME280;59514;48.810;2.134;2022-07-25T05:51:22;99908.78;;;20.58;64.52
70781;BME280;59514;48.810;2.134;2022-07-25T05:53:47;99906.44;;;20.38;65.12
70781;BME280;59514;48.810;2.134;2022-07-25T05:56:13;99916.03;;;20.76;64.49
70781;BME280;59514;48.810;2.134;2022-07-25T05:58:38;99918.06;;;20.84;63.59
70781;BME280;59514;48.810;2.134;2022-07-25T06:01:06;99926.78;;;20.27;64.00
70781;BME280;59514;48.810;2.134;2022-07-25T06:03:32;99926.06;;;20.03;64.91
70781;BME280;59514;48.810;2.134;2022-07-25T06:05:58;99915.13;;;20.40;63.30
70781;BME280;59514;48.810;2.134;2022-07-25T06:08:24;99915.53;;;20.60;62.98
70781;BME280;59514;48.810;2.134;2022-07-25T06:10:53;99926.03;;;20.53;62.49
70781;BME280;59514;48.810;2.134;2022-07-25T06:13:18;99927.47;;;20.19;63.95
70781;BME280;59514;48.810;2.134;2022-07-25T06:15:43;99922.66;;;20.29;63.92
70781;BME280;59514;48.810;2.134;2022-07-25T06:18:09;99938.31;;;20.24;64.22
70781;BME280;59514;48.810;2.134;2022-07-25T06:20:34;99940.75;;;20.39;63.71
70781;BME280;59514;48.810;2.134;2022-07-25T06:22:59;99933.53;;;20.62;63.38
70781;BME280;59514;48.810;2.134;2022-07-25T06:25:27;99938.78;;;20.58;63.17
70781;BME280;59514;48.810;2.134;2022-07-25T06:27:52;99944.00;;;20.41;63.60
70781;BME280;59514;48.810;2.134;2022-07-25T06:30:17;99945.88;;;20.27;64.61
70781;BME280;59514;48.810;2.134;2022-07-25T06:32:42;99946.56;;;20.19;64.85
70781;BME280;59514;48.810;2.134;2022-07-25T06:35:08;99952.47;;;20.39;65.09
70781;BME280;59514;48.810;2.134;2022-07-25T06:37:36;99953.91;;;20.64;64.24
70781;BME280;59514;48.810;2.134;2022-07-25T06:40:02;99957.56;;;20.46;65.36
70781;BME280;59514;48.810;2.134;2022-07-25T06:42:27;99951.69;;;20.66;65.23
70781;BME280;59514;48.810;2.134;2022-07-25T06:44:55;99960.00;;;20.75;64.76
70781;BME280;59514;48.810;2.134;2022-07-25T06:47:20;99968.03;;;20.39;66.20
70781;BME280;59514;48.810;2.134;2022-07-25T06:49:46;99967.44;;;20.42;66.49
70781;BME280;59514;48.810;2.134;2022-07-25T06:52:11;99967.09;;;20.30;67.12
70781;BME280;59514;48.810;2.134;2022-07-25T06:54:37;99974.94;;;20.50;67.11
70781;BME280;59514;48.810;2.134;2022-07-25T06:57:02;99968.88;;;20.21;68.63
70781;BME280;59514;48.810;2.134;2022-07-25T06:59:28;99983.19;;;20.45;68.73
70781;BME280;59514;48.810;2.134;2022-07-25T07:01:53;99987.44;;;20.51;67.00
70781;BME280;59514;48.810;2.134;2022-07-25T07:04:18;99984.22;;;20.49;67.12
70781;BME280;59514;48.810;2.134;2022-07-25T07:06:44;99977.59;;;20.69;66.45
70781;BME280;59514;48.810;2.134;2022-07-25T07:09:09;99976.34;;;20.47;67.37
70781;BME280;59514;48.810;2.134;2022-07-25T07:11:35;99993.19;;;20.36;67.44
70781;BME280;59514;48.810;2.134;2022-07-25T07:14:01;99985.34;;;20.48;67.22
70781;BME280;59514;48.810;2.134;2022-07-25T07:16:30;99985.41;;;20.43;67.64
70781;BME280;59514;48.810;2.134;2022-07-25T07:18:56;99997.31;;;20.79;66.71
70781;BME280;59514;48.810;2.134;2022-07-25T07:21:22;99986.53;;;20.42;67.80
70781;BME280;59514;48.810;2.134;2022-07-25T07:23:48;99997.34;;;20.47;67.99
70781;BME280;59514;48.810;2.134;2022-07-25T07:26:14;99985.25;;;20.53;67.38
70781;BME280;59514;48.810;2.134;2022-07-25T07:28:39;99991.59;;;20.48;67.77
70781;BME280;59514;48.810;2.134;2022-07-25T07:31:04;99989.78;;;20.44;68.03
70781;BME280;59514;48.810;2.134;2022-07-25T07:33:30;99992.53;;;20.57;67.83
70781;BME280;59514;48.810;2.134;2022-07-25T07:35:57;99992.88;;;20.83;67.17
70781;BME280;59514;48.810;2.134;2022-07-25T07:38:23;99988.50;;;20.82;67.24
70781;BME280;59514;48.810;2.134;2022-07-25T07:40:49;100000.69;;;20.90;67.41
70781;BME280;59514;48.810;2.134;2022-07-25T07:43:14;99989.44;;;20.78;68.21
70781;BME280;59514;48.810;2.134;2022-07-25T07:45:40;100001.06;;;20.83;67.67
70781;BME280;59514;48.810;2.134;2022-07-25T07:48:06;100000.88;;;20.93;67.46
70781;BME280;59514;48.810;2.134;2022-07-25T07:50:34;100007.19;;;21.07;67.29
70781;BME280;59514;48.810;2.134;2022-07-25T07:53:06;100001.81;;;21.16;66.99
70781;BME280;59514;48.810;2.134;2022-07-25T07:55:32;100006.66;;;21.32;66.53
70781;BME280;59514;48.810;2.134;2022-07-25T07:58:15;100001.31;;;21.41;65.73
70781;BME280;59514;48.810;2.134;2022-07-25T08:00:43;100011.22;;;21.37;66.13
70781;BME280;59514;48.810;2.134;2022-07-25T08:03:09;100013.16;;;21.36;66.63
70781;BME280;59514;48.810;2.134;2022-07-25T08:05:42;100012.09;;;21.60;65.48
70781;BME280;59514;48.810;2.134;2022-07-25T08:08:10;100027.47;;;21.56;65.65
70781;BME280;59514;48.810;2.134;2022-07-25T08:10:38;100015.34;;;21.48;65.44
70781;BME280;59514;48.810;2.134;2022-07-25T08:13:16;100016.06;;;21.81;65.32
70781;BME280;59514;48.810;2.134;2022-07-25T08:15:43;100019.88;;;21.66;64.67
70781;BME280;59514;48.810;2.134;2022-07-25T08:18:09;100036.09;;;21.63;64.80
70781;BME280;59514;48.810;2.134;2022-07-25T08:20:35;100029.78;;;21.76;65.09
70781;BME280;59514;48.810;2.134;2022-07-25T08:23:00;100021.22;;;21.82;64.20
70781;BME280;59514;48.810;2.134;2022-07-25T08:25:26;100019.47;;;21.86;64.27
70781;BME280;59514;48.810;2.134;2022-07-25T08:27:51;100023.06;;;22.09;63.78
70781;BME280;59514;48.810;2.134;2022-07-25T08:30:17;100022.34;;;22.03;63.77
70781;BME280;59514;48.810;2.134;2022-07-25T08:32:46;100016.97;;;22.12;63.43
70781;BME280;59514;48.810;2.134;2022-07-25T08:35:12;100018.59;;;22.35;62.55
70781;BME280;59514;48.810;2.134;2022-07-25T08:37:38;100016.41;;;22.46;62.17
70781;BME280;59514;48.810;2.134;2022-07-25T08:40:04;100029.97;;;22.51;62.06
70781;BME280;59514;48.810;2.134;2022-07-25T08:42:29;100027.53;;;22.49;62.26
70781;BME280;59514;48.810;2.134;2022-07-25T08:45:00;100015.16;;;22.52;62.63
70781;BME280;59514;48.810;2.134;2022-07-25T08:47:28;100027.78;;;22.39;62.90
70781;BME280;59514;48.810;2.134;2022-07-25T08:49:54;100028.31;;;22.63;61.91
70781;BME280;59514;48.810;2.134;2022-07-25T08:52:20;100032.59;;;22.78;61.05
70781;BME280;59514;48.810;2.134;2022-07-25T08:54:47;100041.13;;;22.76;61.26
70781;BME280;59514;48.810;2.134;2022-07-25T08:57:13;100044.16;;;22.53;61.46
70781;BME280;59514;48.810;2.134;2022-07-25T08:59:38;100042.41;;;22.57;61.69
70781;BME280;59514;48.810;2.134;2022-07-25T09:02:04;100050.63;;;22.57;61.85
70781;BME280;59514;48.810;2.134;2022-07-25T09:04:33;100034.91;;;22.62;61.50
70781;BME280;59514;48.810;2.134;2022-07-25T09:07:02;100042.88;;;22.72;61.19
70781;BME280;59514;48.810;2.134;2022-07-25T09:09:36;100042.47;;;22.87;60.79
70781;BME280;59514;48.810;2.134;2022-07-25T09:12:04;100042.34;;;22.92;60.73
70781;BME280;59514;48.810;2.134;2022-07-25T09:14:42;100057.16;;;22.91;60.30
70781;BME280;59514;48.810;2.134;2022-07-25T09:17:07;100047.22;;;22.73;59.78
70781;BME280;59514;48.810;2.134;2022-07-25T09:19:33;100054.00;;;22.76;59.41
70781;BME280;59514;48.810;2.134;2022-07-25T09:22:06;100053.41;;;22.87;59.03
70781;BME280;59514;48.810;2.134;2022-07-25T09:24:32;100067.84;;;23.01;59.23
70781;BME280;59514;48.810;2.134;2022-07-25T09:27:01;100069.81;;;23.09;57.95
70781;BME280;59514;48.810;2.134;2022-07-25T09:29:33;100071.97;;;22.90;59.30
70781;BME280;59514;48.810;2.134;2022-07-25T09:31:59;100078.78;;;23.01;58.99
70781;BME280;59514;48.810;2.134;2022-07-25T09:34:35;100086.13;;;23.15;58.12
70781;BME280;59514;48.810;2.134;2022-07-25T09:37:03;100079.94;;;23.09;58.44
70781;BME280;59514;48.810;2.134;2022-07-25T09:39:44;100081.81;;;23.31;57.91
70781;BME280;59514;48.810;2.134;2022-07-25T09:42:18;100079.72;;;23.28;58.21
70781;BME280;59514;48.810;2.134;2022-07-25T09:44:56;100071.94;;;23.13;58.77
70781;BME280;59514;48.810;2.134;2022-07-25T09:47:21;100079.97;;;23.40;58.30
70781;BME280;59514;48.810;2.134;2022-07-25T09:49:48;100082.56;;;23.45;57.86
70781;BME280;59514;48.810;2.134;2022-07-25T09:52:13;100081.00;;;23.61;57.19
70781;BME280;59514;48.810;2.134;2022-07-25T09:54:39;100086.28;;;23.49;56.98
70781;BME280;59514;48.810;2.134;2022-07-25T09:57:05;100074.03;;;23.55;56.76
70781;BME280;59514;48.810;2.134;2022-07-25T09:59:32;100086.47;;;23.61;56.88
70781;BME280;59514;48.810;2.134;2022-07-25T10:02:14;100084.31;;;23.41;57.21
70781;BME280;59514;48.810;2.134;2022-07-25T10:07:25;100088.81;;;23.37;56.96
70781;BME280;59514;48.810;2.134;2022-07-25T10:09:54;100098.41;;;23.26;57.38
70781;BME280;59514;48.810;2.134;2022-07-25T10:12:21;100096.03;;;23.33;57.46
70781;BME280;59514;48.810;2.134;2022-07-25T10:15:22;100102.75;;;23.27;57.69
70781;BME280;59514;48.810;2.134;2022-07-25T10:17:48;100115.66;;;23.26;57.80
70781;BME280;59514;48.810;2.134;2022-07-25T10:20:26;100103.25;;;23.29;57.78
70781;BME280;59514;48.810;2.134;2022-07-25T10:22:52;100106.56;;;23.39;57.46
70781;BME280;59514;48.810;2.134;2022-07-25T10:25:18;100104.63;;;23.40;57.28
70781;BME280;59514;48.810;2.134;2022-07-25T10:27:49;100097.88;;;23.46;57.40
70781;BME280;59514;48.810;2.134;2022-07-25T10:30:28;100103.69;;;23.44;57.59
70781;BME280;59514;48.810;2.134;2022-07-25T10:33:00;100114.78;;;23.39;57.83
70781;BME280;59514;48.810;2.134;2022-07-25T10:35:27;100114.78;;;23.39;58.03
70781;BME280;59514;48.810;2.134;2022-07-25T10:37:54;100109.69;;;23.24;58.59
70781;BME280;59514;48.810;2.134;2022-07-25T10:40:44;100128.97;;;23.10;59.30
70781;BME280;59514;48.810;2.134;2022-07-25T10:45:58;100127.16;;;23.06;59.65
70781;BME280;59514;48.810;2.134;2022-07-25T10:48:30;100132.69;;;23.15;59.48
70781;BME280;59514;48.810;2.134;2022-07-25T10:51:05;100133.06;;;22.99;59.47
70781;BME280;59514;48.810;2.134;2022-07-25T10:56:05;100141.53;;;22.89;60.53
70781;BME280;59514;48.810;2.134;2022-07-25T10:58:56;100139.78;;;22.71;61.53
70781;BME280;59514;48.810;2.134;2022-07-25T11:03:50;100139.78;;;22.93;60.27
70781;BME280;59514;48.810;2.134;2022-07-25T11:06:27;100142.78;;;22.83;60.50
70781;BME280;59514;48.810;2.134;2022-07-25T11:08:52;100140.91;;;22.92;60.52
70781;BME280;59514;48.810;2.134;2022-07-25T11:11:41;100141.84;;;24.36;56.67
70781;BME280;59514;48.810;2.134;2022-07-25T11:14:19;100131.56;;;24.67;54.49
70781;BME280;59514;48.810;2.134;2022-07-25T11:16:46;100132.41;;;25.40;53.27
70781;BME280;59514;48.810;2.134;2022-07-25T11:21:51;100149.97;;;24.93;53.89
70781;BME280;59514;48.810;2.134;2022-07-25T11:24:16;100142.16;;;25.12;53.60
70781;BME280;59514;48.810;2.134;2022-07-25T11:29:19;100128.16;;;25.89;50.53
70781;BME280;59514;48.810;2.134;2022-07-25T11:32:11;100127.97;;;26.85;48.23
70781;BME280;59514;48.810;2.134;2022-07-25T11:34:46;100123.75;;;26.46;47.74
70781;BME280;59514;48.810;2.134;2022-07-25T11:37:13;100132.72;;;25.47;50.03
70781;BME280;59514;48.810;2.134;2022-07-25T11:39:40;100135.81;;;25.37;50.42
70781;BME280;59514;48.810;2.134;2022-07-25T11:42:13;100119.53;;;25.15;50.62
70781;BME280;59514;48.810;2.134;2022-07-25T11:44:47;100121.78;;;25.68;49.66
70781;BME280;59514;48.810;2.134;2022-07-25T11:47:26;100130.31;;;25.28;50.85
70781;BME280;59514;48.810;2.134;2022-07-25T11:49:53;100129.63;;;24.76;52.13
70781;BME280;59514;48.810;2.134;2022-07-25T11:52:25;100126.53;;;24.52;52.11
70781;BME280;59514;48.810;2.134;2022-07-25T11:54:53;100125.88;;;24.98;50.64
70781;BME280;59514;48.810;2.134;2022-07-25T11:57:30;100124.13;;;24.76;51.42
70781;BME280;59514;48.810;2.134;2022-07-25T11:59:56;100122.09;;;25.20;50.23
70781;BME280;59514;48.810;2.134;2022-07-25T12:02:26;100128.66;;;25.53;50.00
70781;BME280;59514;48.810;2.134;2022-07-25T12:04:54;100116.25;;;25.30;50.12
70781;BME280;59514;48.810;2.134;2022-07-25T12:07:20;100117.53;;;24.77;51.22
70781;BME280;59514;48.810;2.134;2022-07-25T12:09:54;100123.78;;;24.69;51.63
70781;BME280;59514;48.810;2.134;2022-07-25T12:12:20;100130.91;;;24.53;52.33
70781;BME280;59514;48.810;2.134;2022-07-25T12:14:45;100130.03;;;25.21;50.05
70781;BME280;59514;48.810;2.134;2022-07-25T12:17:10;100124.09;;;24.94;49.53
70781;BME280;59514;48.810;2.134;2022-07-25T12:19:39;100125.50;;;25.25;50.08
70781;BME280;59514;48.810;2.134;2022-07-25T12:22:04;100117.50;;;25.49;48.33
70781;BME280;59514;48.810;2.134;2022-07-25T12:24:29;100123.94;;;25.07;48.51
70781;BME280;59514;48.810;2.134;2022-07-25T12:26:55;100118.03;;;25.34;46.68
70781;BME280;59514;48.810;2.134;2022-07-25T12:29:20;100112.91;;;25.62;45.78
70781;BME280;59514;48.810;2.134;2022-07-25T12:31:45;100119.44;;;26.16;44.31
70781;BME280;59514;48.810;2.134;2022-07-25T12:34:11;100101.38;;;26.48;43.24
70781;BME280;59514;48.810;2.134;2022-07-25T12:36:36;100118.78;;;26.39;42.58
70781;BME280;59514;48.810;2.134;2022-07-25T12:39:08;100120.09;;;25.46;45.78
70781;BME280;59514;48.810;2.134;2022-07-25T12:41:33;100123.13;;;25.07;45.08
70781;BME280;59514;48.810;2.134;2022-07-25T12:43:58;100109.88;;;24.40;47.12
70781;BME280;59514;48.810;2.134;2022-07-25T12:46:25;100115.53;;;24.27;48.61
70781;BME280;59514;48.810;2.134;2022-07-25T12:48:50;100111.84;;;24.40;48.52
70781;BME280;59514;48.810;2.134;2022-07-25T12:51:16;100109.41;;;24.47;48.53
70781;BME280;59514;48.810;2.134;2022-07-25T12:53:41;100100.03;;;24.48;48.54
70781;BME280;59514;48.810;2.134;2022-07-25T12:56:06;100098.94;;;24.57;48.02
70781;BME280;59514;48.810;2.134;2022-07-25T12:58:32;100104.28;;;25.43;46.21
70781;BME280;59514;48.810;2.134;2022-07-25T13:00:57;100107.84;;;26.52;43.54
70781;BME280;59514;48.810;2.134;2022-07-25T13:03:22;100106.47;;;26.58;42.40
70781;BME280;59514;48.810;2.134;2022-07-25T13:05:48;100100.56;;;26.47;43.05
70781;BME280;59514;48.810;2.134;2022-07-25T13:08:13;100091.72;;;26.21;42.57
70781;BME280;59514;48.810;2.134;2022-07-25T13:10:38;100114.63;;;26.13;41.97